sensor_id;sensor_type;location;lat;lon;timestamp;temperature;humidity
20091;DHT22;10205;49.678;6.560;2023-07-24T00:00:39;25.10;46.10
20091;DHT22;10205;49.678;6.560;2023-07-24T00:03:07;25.10;46.10
20091;DHT22;10205;49.678;6.560;2023-07-24T00:05:36;25.10;46.10
20091;DHT22;10205;49.678;6.560;2023-07-24T00:08:03;25.10;46.10
20091;DHT22;10205;49.678;6.560;2023-07-24T00:10:32;25.10;46.10
20091;DHT22;10205;49.678;6.560;2023-07-24T00:12:59;25.00;46.10
20091;DHT22;10205;49.678;6.560;2023-07-24T00:15:28;25.00;46.40
20091;DHT22;10205;49.678;6.560;2023-07-24T00:17:56;25.00;46.10
20091;DHT22;10205;49.678;6.560;2023-07-24T00:20:23;25.00;46.80
20091;DHT22;10205;49.678;6.560;2023-07-24T00:22:53;25.00;46.40
20091;DHT22;10205;49.678;6.560;2023-07-24T00:25:20;25.00;46.60
20091;DHT22;10205;49.678;6.560;2023-07-24T00:27:47;25.00;46.60
20091;DHT22;10205;49.678;6.560;2023-07-24T00:30:15;24.90;47.10
20091;DHT22;10205;49.678;6.560;2023-07-24T00:32:42;24.90;46.60
20091;DHT22;10205;49.678;6.560;2023-07-24T00:35:09;24.90;46.50
20091;DHT22;10205;49.678;6.560;2023-07-24T00:37:36;24.90;46.40
20091;DHT22;10205;49.678;6.560;2023-07-24T00:40:06;24.90;46.40
20091;DHT22;10205;49.678;6.560;2023-07-24T00:42:34;24.80;46.40
20091;DHT22;10205;49.678;6.560;2023-07-24T00:45:02;24.80;46.30
20091;DHT22;10205;49.678;6.560;2023-07-24T00:47:30;24.80;46.80
20091;DHT22;10205;49.678;6.560;2023-07-24T00:49:57;24.80;46.50
20091;DHT22;10205;49.678;6.560;2023-07-24T00:52:25;24.80;46.40
20091;DHT22;10205;49.678;6.560;2023-07-24T00:54:53;24.80;46.40
20091;DHT22;10205;49.678;6.560;2023-07-24T00:57:23;24.80;46.50
20091;DHT22;10205;49.678;6.560;2023-07-24T00:59:50;24.80;46.60
20091;DHT22;10205;49.678;6.560;2023-07-24T01:02:18;24.80;46.50
20091;DHT22;10205;49.678;6.560;2023-07-24T01:04:46;24.80;46.80
20091;DHT22;10205;49.678;6.560;2023-07-24T01:07:14;24.70;47.00
20091;DHT22;10205;49.678;6.560;2023-07-24T01:09:42;24.70;46.70
20091;DHT22;10205;49.678;6.560;2023-07-24T01:12:22;24.70;46.60
20091;DHT22;10205;49.678;6.560;2023-07-24T01:15:06;24.70;46.60
20091;DHT22;10205;49.678;6.560;2023-07-24T01:17:43;24.60;46.70
20091;DHT22;10205;49.678;6.560;2023-07-24T01:20:16;24.60;46.60
20091;DHT22;10205;49.678;6.560;2023-07-24T01:22:54;24.60;46.60
20091;DHT22;10205;49.678;6.560;2023-07-24T01:25:33;24.60;46.70
20091;DHT22;10205;49.678;6.560;2023-07-24T01:28:06;24.60;46.70
20091;DHT22;10205;49.678;6.560;2023-07-24T01:30:34;24.60;46.80
20091;DHT22;10205;49.678;6.560;2023-07-24T01:33:02;24.60;47.80
20091;DHT22;10205;49.678;6.560;2023-07-24T01:35:30;24.60;48.70
20091;DHT22;10205;49.678;6.560;2023-07-24T01:37:59;24.60;47.80
20091;DHT22;10205;49.678;6.560;2023-07-24T01:40:29;24.50;47.70
20091;DHT22;10205;49.678;6.560;2023-07-24T01:42:56;24.50;47.30
20091;DHT22;10205;49.678;6.560;2023-07-24T01:45:26;24.50;48.00
20091;DHT22;10205;49.678;6.560;2023-07-24T01:47:53;24.50;47.40
20091;DHT22;10205;49.678;6.560;2023-07-24T01:50:21;24.40;47.70
20091;DHT22;10205;49.678;6.560;2023-07-24T01:52:48;24.40;47.70
20091;DHT22;10205;49.678;6.560;2023-07-24T01:55:15;24.40;48.30
20091;DHT22;10205;49.678;6.560;2023-07-24T01:57:43;24.40;48.80
20091;DHT22;10205;49.678;6.560;2023-07-24T02:00:11;24.30;48.10
20091;DHT22;10205;49.678;6.560;2023-07-24T02:02:40;24.30;48.30
20091;DHT22;10205;49.678;6.560;2023-07-24T02:05:08;24.20;49.10
20091;DHT22;10205;49.678;6.560;2023-07-24T02:07:35;24.20;48.60
20091;DHT22;10205;49.678;6.560;2023-07-24T02:10:03;24.20;48.80
20091;DHT22;10205;49.678;6.560;2023-07-24T02:12:30;24.20;49.10
20091;DHT22;10205;49.678;6.560;2023-07-24T02:14:58;24.10;49.10
20091;DHT22;10205;49.678;6.560;2023-07-24T02:17:25;24.00;48.90
20091;DHT22;10205;49.678;6.560;2023-07-24T02:19:54;24.00;48.90
20091;DHT22;10205;49.678;6.560;2023-07-24T02:22:21;24.00;49.20
20091;DHT22;10205;49.678;6.560;2023-07-24T02:24:48;23.90;48.70
20091;DHT22;10205;49.678;6.560;2023-07-24T02:27:25;23.90;48.80
20091;DHT22;10205;49.678;6.560;2023-07-24T02:29:53;23.90;49.50
20091;DHT22;10205;49.678;6.560;2023-07-24T02:32:21;23.90;48.70
20091;DHT22;10205;49.678;6.560;2023-07-24T02:34:49;23.90;48.90
20091;DHT22;10205;49.678;6.560;2023-07-24T02:37:18;23.90;49.20
20091;DHT22;10205;49.678;6.560;2023-07-24T02:39:45;23.90;48.70
20091;DHT22;10205;49.678;6.560;2023-07-24T02:42:13;23.90;48.90
20091;DHT22;10205;49.678;6.560;2023-07-24T02:44:40;23.80;48.90
20091;DHT22;10205;49.678;6.560;2023-07-24T02:47:07;23.90;49.20
20091;DHT22;10205;49.678;6.560;2023-07-24T02:49:34;23.80;48.90
20091;DHT22;10205;49.678;6.560;2023-07-24T02:52:02;23.80;48.90
20091;DHT22;10205;49.678;6.560;2023-07-24T02:54:31;23.80;48.70
20091;DHT22;10205;49.678;6.560;2023-07-24T02:56:59;23.80;48.50
20091;DHT22;10205;49.678;6.560;2023-07-24T02:59:26;23.80;48.80
20091;DHT22;10205;49.678;6.560;2023-07-24T03:01:54;23.80;48.40
20091;DHT22;10205;49.678;6.560;2023-07-24T03:04:21;23.80;48.40
20091;DHT22;10205;49.678;6.560;2023-07-24T03:06:48;23.80;48.30
20091;DHT22;10205;49.678;6.560;2023-07-24T03:09:16;23.80;48.90
20091;DHT22;10205;49.678;6.560;2023-07-24T03:11:44;23.80;49.10
20091;DHT22;10205;49.678;6.560;2023-07-24T03:14:12;23.80;48.60
20091;DHT22;10205;49.678;6.560;2023-07-24T03:16:39;23.80;48.40
20091;DHT22;10205;49.678;6.560;2023-07-24T03:19:06;23.80;48.30
20091;DHT22;10205;49.678;6.560;2023-07-24T03:21:34;23.80;49.30
20091;DHT22;10205;49.678;6.560;2023-07-24T03:24:01;23.80;48.70
20091;DHT22;10205;49.678;6.560;2023-07-24T03:26:28;23.80;48.80
20091;DHT22;10205;49.678;6.560;2023-07-24T03:29:00;23.70;48.60
20091;DHT22;10205;49.678;6.560;2023-07-24T03:31:27;23.70;49.20
20091;DHT22;10205;49.678;6.560;2023-07-24T03:33:54;23.70;48.90
20091;DHT22;10205;49.678;6.560;2023-07-24T03:36:21;23.70;48.90
20091;DHT22;10205;49.678;6.560;2023-07-24T03:38:48;23.60;49.10
20091;DHT22;10205;49.678;6.560;2023-07-24T03:41:16;23.60;49.40
20091;DHT22;10205;49.678;6.560;2023-07-24T03:43:43;23.60;49.50
20091;DHT22;10205;49.678;6.560;2023-07-24T03:46:12;23.60;49.20
20091;DHT22;10205;49.678;6.560;2023-07-24T03:48:39;23.50;49.50
20091;DHT22;10205;49.678;6.560;2023-07-24T03:51:07;23.50;49.40
20091;DHT22;10205;49.678;6.560;2023-07-24T03:53:35;23.50;49.30
20091;DHT22;10205;49.678;6.560;2023-07-24T03:56:02;23.40;49.80
20091;DHT22;10205;49.678;6.560;2023-07-24T03:58:30;23.40;49.40
20091;DHT22;10205;49.678;6.560;2023-07-24T04:00:57;23.40;49.80
20091;DHT22;10205;49.678;6.560;2023-07-24T04:03:26;23.40;49.50
20091;DHT22;10205;49.678;6.560;2023-07-24T04:05:54;23.40;50.00
20091;DHT22;10205;49.678;6.560;2023-07-24T04:08:22;23.30;49.60
20091;DHT22;10205;49.678;6.560;2023-07-24T04:10:49;23.30;50.30
20091;DHT22;10205;49.678;6.560;2023-07-24T04:13:16;23.30;50.00
20091;DHT22;10205;49.678;6.560;2023-07-24T04:15:44;23.30;50.00
20091;DHT22;10205;49.678;6.560;2023-07-24T04:18:11;23.20;49.70
20091;DHT22;10205;49.678;6.560;2023-07-24T04:20:40;23.20;49.70
20091;DHT22;10205;49.678;6.560;2023-07-24T04:23:07;23.20;49.90
20091;DHT22;10205;49.678;6.560;2023-07-24T04:25:34;23.20;50.20
20091;DHT22;10205;49.678;6.560;2023-07-24T04:28:02;23.20;50.70
20091;DHT22;10205;49.678;6.560;2023-07-24T04:30:29;23.20;50.80
20091;DHT22;10205;49.678;6.560;2023-07-24T04:32:58;23.20;50.10
20091;DHT22;10205;49.678;6.560;2023-07-24T04:35:26;23.20;49.90
20091;DHT22;10205;49.678;6.560;2023-07-24T04:37:55;23.20;50.70
20091;DHT22;10205;49.678;6.560;2023-07-24T04:40:23;23.20;50.50
20091;DHT22;10205;49.678;6.560;2023-07-24T04:42:52;23.10;50.00
20091;DHT22;10205;49.678;6.560;2023-07-24T04:45:23;23.10;50.10
20091;DHT22;10205;49.678;6.560;2023-07-24T04:47:50;23.10;50.30
20091;DHT22;10205;49.678;6.560;2023-07-24T04:50:18;23.10;50.80
20091;DHT22;10205;49.678;6.560;2023-07-24T04:52:45;23.10;50.80
20091;DHT22;10205;49.678;6.560;2023-07-24T04:55:14;23.10;50.80
20091;DHT22;10205;49.678;6.560;2023-07-24T04:57:41;23.10;51.20
20091;DHT22;10205;49.678;6.560;2023-07-24T05:00:09;23.10;50.50
20091;DHT22;10205;49.678;6.560;2023-07-24T05:02:37;23.10;51.00
20091;DHT22;10205;49.678;6.560;2023-07-24T05:05:05;23.10;50.40
20091;DHT22;10205;49.678;6.560;2023-07-24T05:07:33;23.10;51.60
20091;DHT22;10205;49.678;6.560;2023-07-24T05:10:01;23.10;51.50
20091;DHT22;10205;49.678;6.560;2023-07-24T05:12:29;23.10;51.50
20091;DHT22;10205;49.678;6.560;2023-07-24T05:14:56;23.10;50.80
20091;DHT22;10205;49.678;6.560;2023-07-24T05:17:24;23.10;51.40
20091;DHT22;10205;49.678;6.560;2023-07-24T05:19:54;23.10;50.90
20091;DHT22;10205;49.678;6.560;2023-07-24T05:22:21;23.10;51.90
20091;DHT22;10205;49.678;6.560;2023-07-24T05:24:48;23.10;51.60
20091;DHT22;10205;49.678;6.560;2023-07-24T05:27:15;23.10;51.20
20091;DHT22;10205;49.678;6.560;2023-07-24T05:29:45;23.10;51.10
20091;DHT22;10205;49.678;6.560;2023-07-24T05:32:12;23.10;51.60
20091;DHT22;10205;49.678;6.560;2023-07-24T05:34:39;23.10;51.50
20091;DHT22;10205;49.678;6.560;2023-07-24T05:37:06;23.10;51.60
20091;DHT22;10205;49.678;6.560;2023-07-24T05:39:33;23.10;51.70
20091;DHT22;10205;49.678;6.560;2023-07-24T05:42:01;23.10;51.20
20091;DHT22;10205;49.678;6.560;2023-07-24T05:44:29;23.10;51.50
20091;DHT22;10205;49.678;6.560;2023-07-24T05:46:57;23.10;52.20
20091;DHT22;10205;49.678;6.560;2023-07-24T05:49:24;23.10;51.70
20091;DHT22;10205;49.678;6.560;2023-07-24T05:51:52;23.20;51.00
20091;DHT22;10205;49.678;6.560;2023-07-24T05:54:20;23.20;50.90
20091;DHT22;10205;49.678;6.560;2023-07-24T05:56:47;23.20;51.20
20091;DHT22;10205;49.678;6.560;2023-07-24T05:59:15;23.20;51.10
20091;DHT22;10205;49.678;6.560;2023-07-24T06:01:42;23.20;51.10
20091;DHT22;10205;49.678;6.560;2023-07-24T06:04:11;23.20;51.40
20091;DHT22;10205;49.678;6.560;2023-07-24T06:06:38;23.20;50.90
20091;DHT22;10205;49.678;6.560;2023-07-24T06:09:06;23.20;51.40
20091;DHT22;10205;49.678;6.560;2023-07-24T06:11:33;23.30;51.00
20091;DHT22;10205;49.678;6.560;2023-07-24T06:14:00;23.30;50.90
20091;DHT22;10205;49.678;6.560;2023-07-24T06:16:27;23.30;51.40
20091;DHT22;10205;49.678;6.560;2023-07-24T06:18:55;23.30;51.60
20091;DHT22;10205;49.678;6.560;2023-07-24T06:21:23;23.40;51.70
20091;DHT22;10205;49.678;6.560;2023-07-24T06:23:50;23.40;51.60
20091;DHT22;10205;49.678;6.560;2023-07-24T06:26:18;23.40;51.30
20091;DHT22;10205;49.678;6.560;2023-07-24T06:28:45;23.40;51.20
20091;DHT22;10205;49.678;6.560;2023-07-24T06:31:12;23.50;51.10
20091;DHT22;10205;49.678;6.560;2023-07-24T06:33:39;23.40;51.00
20091;DHT22;10205;49.678;6.560;2023-07-24T06:36:09;23.50;51.50
20091;DHT22;10205;49.678;6.560;2023-07-24T06:38:38;23.50;50.80
20091;DHT22;10205;49.678;6.560;2023-07-24T06:41:07;23.50;50.70
20091;DHT22;10205;49.678;6.560;2023-07-24T06:43:35;23.50;51.20
20091;DHT22;10205;49.678;6.560;2023-07-24T06:46:02;23.60;50.70
20091;DHT22;10205;49.678;6.560;2023-07-24T06:48:29;23.60;50.80
20091;DHT22;10205;49.678;6.560;2023-07-24T06:50:58;23.60;50.70
20091;DHT22;10205;49.678;6.560;2023-07-24T06:53:25;23.60;50.70
20091;DHT22;10205;49.678;6.560;2023-07-24T06:55:54;23.60;50.80
20091;DHT22;10205;49.678;6.560;2023-07-24T06:58:21;23.70;50.70
20091;DHT22;10205;49.678;6.560;2023-07-24T07:00:48;23.70;51.00
20091;DHT22;10205;49.678;6.560;2023-07-24T07:03:16;23.70;50.50
20091;DHT22;10205;49.678;6.560;2023-07-24T07:05:43;23.70;50.40
20091;DHT22;10205;49.678;6.560;2023-07-24T07:08:11;23.70;50.70
20091;DHT22;10205;49.678;6.560;2023-07-24T07:10:38;23.70;50.50
20091;DHT22;10205;49.678;6.560;2023-07-24T07:13:06;23.70;50.30
20091;DHT22;10205;49.678;6.560;2023-07-24T07:15:35;23.80;50.30
20091;DHT22;10205;49.678;6.560;2023-07-24T07:18:03;23.80;50.10
20091;DHT22;10205;49.678;6.560;2023-07-24T07:20:30;23.80;50.20
20091;DHT22;10205;49.678;6.560;2023-07-24T07:22:57;23.80;50.10
20091;DHT22;10205;49.678;6.560;2023-07-24T07:25:25;23.80;50.20
20091;DHT22;10205;49.678;6.560;2023-07-24T07:27:52;23.90;50.50
20091;DHT22;10205;49.678;6.560;2023-07-24T07:30:21;23.90;50.50
20091;DHT22;10205;49.678;6.560;2023-07-24T07:32:48;23.90;50.30
20091;DHT22;10205;49.678;6.560;2023-07-24T07:35:15;23.90;50.10
20091;DHT22;10205;49.678;6.560;2023-07-24T07:37:42;24.00;50.10
20091;DHT22;10205;49.678;6.560;2023-07-24T07:40:11;24.00;50.30
20091;DHT22;10205;49.678;6.560;2023-07-24T07:42:38;24.00;49.90
20091;DHT22;10205;49.678;6.560;2023-07-24T07:45:06;24.00;50.00
20091;DHT22;10205;49.678;6.560;2023-07-24T07:47:36;24.10;49.80
20091;DHT22;10205;49.678;6.560;2023-07-24T07:50:04;24.10;49.80
20091;DHT22;10205;49.678;6.560;2023-07-24T07:52:32;24.10;50.10
20091;DHT22;10205;49.678;6.560;2023-07-24T07:54:59;24.20;50.10
20091;DHT22;10205;49.678;6.560;2023-07-24T07:57:27;24.20;49.70
20091;DHT22;10205;49.678;6.560;2023-07-24T07:59:54;24.20;49.60
20091;DHT22;10205;49.678;6.560;2023-07-24T08:02:22;24.20;49.60
20091;DHT22;10205;49.678;6.560;2023-07-24T08:04:50;24.20;49.70
20091;DHT22;10205;49.678;6.560;2023-07-24T08:07:18;24.20;49.60
20091;DHT22;10205;49.678;6.560;2023-07-24T08:09:45;24.30;50.10
20091;DHT22;10205;49.678;6.560;2023-07-24T08:12:13;24.30;50.80
20091;DHT22;10205;49.678;6.560;2023-07-24T08:14:40;24.30;50.50
20091;DHT22;10205;49.678;6.560;2023-07-24T08:17:07;24.30;50.10
20091;DHT22;10205;49.678;6.560;2023-07-24T08:19:35;24.30;50.20
20091;DHT22;10205;49.678;6.560;2023-07-24T08:22:04;24.30;49.80
20091;DHT22;10205;49.678;6.560;2023-07-24T08:24:34;24.40;50.70
20091;DHT22;10205;49.678;6.560;2023-07-24T08:27:02;24.40;49.90
20091;DHT22;10205;49.678;6.560;2023-07-24T08:29:29;24.40;49.90
20091;DHT22;10205;49.678;6.560;2023-07-24T08:31:56;24.40;49.60
20091;DHT22;10205;49.678;6.560;2023-07-24T08:34:24;24.50;49.60
20091;DHT22;10205;49.678;6.560;2023-07-24T08:36:51;24.50;49.60
20091;DHT22;10205;49.678;6.560;2023-07-24T08:39:20;24.50;50.10
20091;DHT22;10205;49.678;6.560;2023-07-24T08:41:47;24.50;50.00
20091;DHT22;10205;49.678;6.560;2023-07-24T08:44:15;24.60;49.60
20091;DHT22;10205;49.678;6.560;2023-07-24T08:46:43;24.60;49.90
20091;DHT22;10205;49.678;6.560;2023-07-24T08:49:13;24.60;50.10
20091;DHT22;10205;49.678;6.560;2023-07-24T08:51:41;24.60;49.90
20091;DHT22;10205;49.678;6.560;2023-07-24T08:54:11;24.60;49.70
20091;DHT22;10205;49.678;6.560;2023-07-24T08:56:40;24.70;50.00
20091;DHT22;10205;49.678;6.560;2023-07-24T08:59:12;24.70;49.80
20091;DHT22;10205;49.678;6.560;2023-07-24T09:01:40;24.70;50.00
20091;DHT22;10205;49.678;6.560;2023-07-24T09:04:07;24.80;50.60
20091;DHT22;10205;49.678;6.560;2023-07-24T09:06:35;24.80;50.30
20091;DHT22;10205;49.678;6.560;2023-07-24T09:09:12;24.80;49.80
20091;DHT22;10205;49.678;6.560;2023-07-24T09:11:49;24.80;50.10
20091;DHT22;10205;49.678;6.560;2023-07-24T09:14:22;24.90;49.80
20091;DHT22;10205;49.678;6.560;2023-07-24T09:17:01;24.90;49.70
20091;DHT22;10205;49.678;6.560;2023-07-24T09:19:29;25.00;50.00
20091;DHT22;10205;49.678;6.560;2023-07-24T09:22:06;25.00;50.00
20091;DHT22;10205;49.678;6.560;2023-07-24T09:24:34;25.00;50.00
20091;DHT22;10205;49.678;6.560;2023-07-24T09:27:05;25.00;49.70
20091;DHT22;10205;49.678;6.560;2023-07-24T09:29:34;25.00;49.70
20091;DHT22;10205;49.678;6.560;2023-07-24T09:32:01;25.10;49.60
20091;DHT22;10205;49.678;6.560;2023-07-24T09:34:29;25.10;49.60
20091;DHT22;10205;49.678;6.560;2023-07-24T09:36:58;25.20;49.60
20091;DHT22;10205;49.678;6.560;2023-07-24T09:39:26;25.20;49.80
20091;DHT22;10205;49.678;6.560;2023-07-24T09:42:04;25.30;49.70
20091;DHT22;10205;49.678;6.560;2023-07-24T09:44:32;25.30;50.30
20091;DHT22;10205;49.678;6.560;2023-07-24T09:46:59;25.30;49.90
20091;DHT22;10205;49.678;6.560;2023-07-24T09:49:28;25.40;49.70
20091;DHT22;10205;49.678;6.560;2023-07-24T09:51:58;25.40;49.50
20091;DHT22;10205;49.678;6.560;2023-07-24T09:54:33;25.50;49.40
20091;DHT22;10205;49.678;6.560;2023-07-24T09:57:08;25.50;49.20
20091;DHT22;10205;49.678;6.560;2023-07-24T09:59:36;25.60;49.40
20091;DHT22;10205;49.678;6.560;2023-07-24T10:02:04;25.60;49.40
20091;DHT22;10205;49.678;6.560;2023-07-24T10:04:34;25.70;49.40
20091;DHT22;10205;49.678;6.560;2023-07-24T10:07:04;25.80;49.40
20091;DHT22;10205;49.678;6.560;2023-07-24T10:09:33;25.80;49.30
20091;DHT22;10205;49.678;6.560;2023-07-24T10:12:02;25.90;49.20
20091;DHT22;10205;49.678;6.560;2023-07-24T10:14:32;26.00;49.10
20091;DHT22;10205;49.678;6.560;2023-07-24T10:17:01;26.00;48.90
20091;DHT22;10205;49.678;6.560;2023-07-24T10:19:36;26.10;48.80
20091;DHT22;10205;49.678;6.560;2023-07-24T10:22:05;26.20;48.50
20091;DHT22;10205;49.678;6.560;2023-07-24T10:24:33;26.30;48.40
20091;DHT22;10205;49.678;6.560;2023-07-24T10:27:03;26.30;48.40
20091;DHT22;10205;49.678;6.560;2023-07-24T10:29:36;26.40;48.20
20091;DHT22;10205;49.678;6.560;2023-07-24T10:32:04;26.50;48.10
20091;DHT22;10205;49.678;6.560;2023-07-24T10:34:42;26.50;48.10
20091;DHT22;10205;49.678;6.560;2023-07-24T10:37:10;26.60;48.10
20091;DHT22;10205;49.678;6.560;2023-07-24T10:39:38;26.70;48.00
20091;DHT22;10205;49.678;6.560;2023-07-24T10:42:08;26.80;47.90
20091;DHT22;10205;49.678;6.560;2023-07-24T10:44:37;26.80;47.70
20091;DHT22;10205;49.678;6.560;2023-07-24T10:47:06;26.80;47.60
20091;DHT22;10205;49.678;6.560;2023-07-24T10:49:34;26.90;47.60
20091;DHT22;10205;49.678;6.560;2023-07-24T10:52:01;27.00;47.60
20091;DHT22;10205;49.678;6.560;2023-07-24T10:54:29;27.00;47.50
20091;DHT22;10205;49.678;6.560;2023-07-24T10:56:58;27.00;47.70
20091;DHT22;10205;49.678;6.560;2023-07-24T10:59:38;27.10;47.60
20091;DHT22;10205;49.678;6.560;2023-07-24T11:02:07;27.10;47.50
20091;DHT22;10205;49.678;6.560;2023-07-24T11:04:35;27.10;47.90
20091;DHT22;10205;49.678;6.560;2023-07-24T11:07:03;27.20;48.00
20091;DHT22;10205;49.678;6.560;2023-07-24T11:09:36;27.20;48.80
20091;DHT22;10205;49.678;6.560;2023-07-24T11:12:13;27.20;48.20
20091;DHT22;10205;49.678;6.560;2023-07-24T11:14:53;27.20;48.30
20091;DHT22;10205;49.678;6.560;2023-07-24T11:17:20;27.20;48.70
20091;DHT22;10205;49.678;6.560;2023-07-24T11:19:48;27.20;49.10
20091;DHT22;10205;49.678;6.560;2023-07-24T11:22:15;27.20;48.70
20091;DHT22;10205;49.678;6.560;2023-07-24T11:24:48;27.20;48.90
20091;DHT22;10205;49.678;6.560;2023-07-24T11:27:16;27.20;49.20
20091;DHT22;10205;49.678;6.560;2023-07-24T11:29:48;27.20;49.70
20091;DHT22;10205;49.678;6.560;2023-07-24T11:32:19;27.10;49.30
20091;DHT22;10205;49.678;6.560;2023-07-24T11:34:47;27.10;49.70
20091;DHT22;10205;49.678;6.560;2023-07-24T11:37:15;27.00;50.10
20091;DHT22;10205;49.678;6.560;2023-07-24T11:39:55;27.00;50.20
20091;DHT22;10205;49.678;6.560;2023-07-24T11:42:25;26.90;50.90
20091;DHT22;10205;49.678;6.560;2023-07-24T11:44:53;26.90;50.30
20091;DHT22;10205;49.678;6.560;2023-07-24T11:47:22;26.90;50.30
20091;DHT22;10205;49.678;6.560;2023-07-24T11:49:57;26.90;51.40
20091;DHT22;10205;49.678;6.560;2023-07-24T11:52:25;26.90;50.80
20091;DHT22;10205;49.678;6.560;2023-07-24T11:54:56;26.90;50.70
20091;DHT22;10205;49.678;6.560;2023-07-24T11:57:27;26.80;50.80
20091;DHT22;10205;49.678;6.560;2023-07-24T11:59:55;26.80;50.70
20091;DHT22;10205;49.678;6.560;2023-07-24T12:02:25;26.80;51.60
20091;DHT22;10205;49.678;6.560;2023-07-24T12:04:55;26.80;51.50
20091;DHT22;10205;49.678;6.560;2023-07-24T12:07:29;26.80;52.50
20091;DHT22;10205;49.678;6.560;2023-07-24T12:09:58;26.80;52.70
20091;DHT22;10205;49.678;6.560;2023-07-24T12:12:37;26.70;52.00
20091;DHT22;10205;49.678;6.560;2023-07-24T12:15:06;26.70;52.40
20091;DHT22;10205;49.678;6.560;2023-07-24T12:17:36;26.70;52.70
20091;DHT22;10205;49.678;6.560;2023-07-24T12:20:04;26.60;52.10
20091;DHT22;10205;49.678;6.560;2023-07-24T12:22:34;26.60;52.10
20091;DHT22;10205;49.678;6.560;2023-07-24T12:25:01;26.60;52.90
20091;DHT22;10205;49.678;6.560;2023-07-24T12:27:29;26.60;52.90
20091;DHT22;10205;49.678;6.560;2023-07-24T12:29:56;26.60;52.90
20091;DHT22;10205;49.678;6.560;2023-07-24T12:32:24;26.50;52.40
20091;DHT22;10205;49.678;6.560;2023-07-24T12:34:53;26.60;52.50
20091;DHT22;10205;49.678;6.560;2023-07-24T12:37:21;26.60;53.30
20091;DHT22;10205;49.678;6.560;2023-07-24T12:39:48;26.60;53.20
20091;DHT22;10205;49.678;6.560;2023-07-24T12:42:16;26.60;53.00
20091;DHT22;10205;49.678;6.560;2023-07-24T12:44:44;26.60;53.00
20091;DHT22;10205;49.678;6.560;2023-07-24T12:47:11;26.60;52.70
20091;DHT22;10205;49.678;6.560;2023-07-24T12:49:39;26.60;52.90
20091;DHT22;10205;49.678;6.560;2023-07-24T12:52:07;26.70;52.80
20091;DHT22;10205;49.678;6.560;2023-07-24T12:54:35;26.70;53.00
20091;DHT22;10205;49.678;6.560;2023-07-24T12:57:02;26.80;52.90
20091;DHT22;10205;49.678;6.560;2023-07-24T12:59:30;26.80;53.00
20091;DHT22;10205;49.678;6.560;2023-07-24T13:01:57;26.80;52.90
20091;DHT22;10205;49.678;6.560;2023-07-24T13:04:24;26.80;52.90
20091;DHT22;10205;49.678;6.560;2023-07-24T13:06:52;26.90;52.70
20091;DHT22;10205;49.678;6.560;2023-07-24T13:09:21;26.90;52.70
20091;DHT22;10205;49.678;6.560;2023-07-24T13:11:49;26.90;52.40
20091;DHT22;10205;49.678;6.560;2023-07-24T13:14:17;27.00;52.50
20091;DHT22;10205;49.678;6.560;2023-07-24T13:16:44;27.00;53.20
20091;DHT22;10205;49.678;6.560;2023-07-24T13:19:12;27.10;52.40
20091;DHT22;10205;49.678;6.560;2023-07-24T13:21:39;27.10;52.10
20091;DHT22;10205;49.678;6.560;2023-07-24T13:24:08;27.10;51.90
20091;DHT22;10205;49.678;6.560;2023-07-24T13:26:37;27.20;51.90
20091;DHT22;10205;49.678;6.560;2023-07-24T13:29:05;27.20;51.80
20091;DHT22;10205;49.678;6.560;2023-07-24T13:31:32;27.20;51.70
20091;DHT22;10205;49.678;6.560;2023-07-24T13:34:00;27.20;51.60
20091;DHT22;10205;49.678;6.560;2023-07-24T13:36:28;27.20;51.50
20091;DHT22;10205;49.678;6.560;2023-07-24T13:38:55;27.20;51.40
20091;DHT22;10205;49.678;6.560;2023-07-24T13:41:22;27.20;51.40
20091;DHT22;10205;49.678;6.560;2023-07-24T13:43:51;27.20;51.40
20091;DHT22;10205;49.678;6.560;2023-07-24T13:46:18;27.20;51.40
20091;DHT22;10205;49.678;6.560;2023-07-24T13:48:46;27.20;51.30
20091;DHT22;10205;49.678;6.560;2023-07-24T13:51:13;27.20;51.20
20091;DHT22;10205;49.678;6.560;2023-07-24T13:53:40;27.30;51.30
20091;DHT22;10205;49.678;6.560;2023-07-24T13:56:08;27.20;51.20
20091;DHT22;10205;49.678;6.560;2023-07-24T13:58:35;27.30;51.00
20091;DHT22;10205;49.678;6.560;2023-07-24T14:01:03;27.30;51.00
20091;DHT22;10205;49.678;6.560;2023-07-24T14:03:32;27.30;51.00
20091;DHT22;10205;49.678;6.560;2023-07-24T14:06:00;27.30;50.80
20091;DHT22;10205;49.678;6.560;2023-07-24T14:08:27;27.40;50.80
20091;DHT22;10205;49.678;6.560;2023-07-24T14:10:54;27.40;50.70
20091;DHT22;10205;49.678;6.560;2023-07-24T14:13:21;27.50;50.60
20091;DHT22;10205;49.678;6.560;2023-07-24T14:15:49;27.50;50.40
20091;DHT22;10205;49.678;6.560;2023-07-24T14:18:17;27.50;50.10
20091;DHT22;10205;49.678;6.560;2023-07-24T14:20:45;27.50;50.00
20091;DHT22;10205;49.678;6.560;2023-07-24T14:23:12;27.60;50.00
20091;DHT22;10205;49.678;6.560;2023-07-24T14:25:40;27.60;50.00
20091;DHT22;10205;49.678;6.560;2023-07-24T14:28:07;27.60;49.90
20091;DHT22;10205;49.678;6.560;2023-07-24T14:30:34;27.60;49.70
20091;DHT22;10205;49.678;6.560;2023-07-24T14:33:02;27.60;49.60
20091;DHT22;10205;49.678;6.560;2023-07-24T14:35:30;27.60;48.70
20091;DHT22;10205;49.678;6.560;2023-07-24T14:37:58;27.60;49.10
20091;DHT22;10205;49.678;6.560;2023-07-24T14:40:25;27.70;48.90
20091;DHT22;10205;49.678;6.560;2023-07-24T14:42:52;27.70;49.10
20091;DHT22;10205;49.678;6.560;2023-07-24T14:45:19;27.70;49.00
20091;DHT22;10205;49.678;6.560;2023-07-24T14:47:47;27.70;48.60
20091;DHT22;10205;49.678;6.560;2023-07-24T14:50:15;27.70;48.60
20091;DHT22;10205;49.678;6.560;2023-07-24T14:52:44;27.70;48.00
20091;DHT22;10205;49.678;6.560;2023-07-24T14:55:11;27.70;48.10
20091;DHT22;10205;49.678;6.560;2023-07-24T14:57:38;27.70;48.20
20091;DHT22;10205;49.678;6.560;2023-07-24T15:00:07;27.70;47.90
20091;DHT22;10205;49.678;6.560;2023-07-24T15:02:35;27.70;47.70
20091;DHT22;10205;49.678;6.560;2023-07-24T15:05:03;27.70;47.70
20091;DHT22;10205;49.678;6.560;2023-07-24T15:07:30;27.70;47.40
20091;DHT22;10205;49.678;6.560;2023-07-24T15:09:59;27.70;47.80
20091;DHT22;10205;49.678;6.560;2023-07-24T15:12:26;27.70;47.30
20091;DHT22;10205;49.678;6.560;2023-07-24T15:14:54;27.70;47.60
20091;DHT22;10205;49.678;6.560;2023-07-24T15:17:21;27.70;47.50
20091;DHT22;10205;49.678;6.560;2023-07-24T15:19:48;27.70;47.30
20091;DHT22;10205;49.678;6.560;2023-07-24T15:22:16;27.70;46.80
20091;DHT22;10205;49.678;6.560;2023-07-24T15:24:44;27.70;46.80
20091;DHT22;10205;49.678;6.560;2023-07-24T15:27:12;27.70;46.60
20091;DHT22;10205;49.678;6.560;2023-07-24T15:29:40;27.70;46.40
20091;DHT22;10205;49.678;6.560;2023-07-24T15:32:08;27.70;46.70
20091;DHT22;10205;49.678;6.560;2023-07-24T15:34:35;27.70;46.90
20091;DHT22;10205;49.678;6.560;2023-07-24T15:37:02;27.70;46.80